Station: Goondiwindi  

  Atmospheric Gas Attenuation - ITU Rec 676-11   ----------------- dB/100km -----------------
Date Time Temp RH % AH g/m3 Dew Point Wind Direction Speed kph Gust kph Barometer mB Rainfall Since 9am 24GHz 47GHz 76GHz 122GHz 134GHz 241GHz
06/05 09:20 19.7 60 10.19 11.9 2 4 1019.2 0 22.7 26.9 43.3 113.8 111.7 385.8
06/05 09:10 18.2 66 10.26 11.7 0 2 1019.1 0 22.9 27.5 44.4 116.7 114.8 396.4
06/05 09:00 18 67 10.29 11.8 2 4 1019.1 0 23.0 27.6 44.6 117.3 115.5 398.8
06/05 08:50 17.1 69 10.04 11.5 2 4 1019.1 0.4 22.5 27.5 44.1 116.0 113.5 391.7
06/05 08:40 16.4 71 9.91 11.1 2 4 1019.1 0.4 22.2 27.5 44.0 115.6 112.8 389.1
06/05 08:30 16.1 73 10.01 11.3 2 4 1019.1 0.4 22.5 27.7 44.6 117.1 114.6 395.4
06/05 08:20 15.7 74 9.9 11.2 4 4 1019.1 0.4 22.3 27.7 44.3 116.5 113.7 392.2
06/05 08:10 15.4 77 10.12 11.4 4 6 1019 0.4 22.7 28.1 45.4 119.4 117.1 404.1
06/05 08:00 14.9 78 9.94 11.1 6 7 1019.1 0.4 22.4 28.0 45.0 118.2 115.4 398.1
06/05 07:50 14.5 80 9.95 11.1 6 6 1018.9 0.4 22.4 28.1 45.2 118.9 116.1 400.6
06/05 07:40 14.1 86 10.44 11.9 6 6 1018.8 0.4 23.5 29.1 47.5 125.0 123.6 426.6
06/05 07:30 13.3 95 10.98 12.5 2 6 1018.7 0.4 24.7 30.3 50.4 132.6 132.6 458.1
06/05 07:20 12.9 97 10.93 12.4 0 0 1018.5 0.4 24.6 30.3 50.4 132.7 132.6 457.9
06/05 07:10 12.9 97 10.93 12.4 0 0 1018.5 0.4 24.6 30.3 50.4 132.7 132.6 457.9
06/05 07:00 12.3 97 10.53 11.8 0 0 1018.4 0.4 23.8 29.8 49.0 129.0 127.8 441.0
06/05 06:50 12.1 97 10.4 11.6 0 0 1018.4 0.4 23.5 29.7 48.6 127.8 126.3 435.6
06/05 06:40 12 97 10.34 11.5 0 0 1018.4 0.4 23.4 29.6 48.4 127.2 125.6 433.1
06/05 06:30 11.8 96 10.11 11.2 2 4 1018.2 0.4 22.9 29.3 47.5 124.8 122.5 422.6
06/05 06:20 11.6 95 9.88 10.9 2 2 1018.2 0.4 22.4 28.9 46.6 122.5 119.6 412.1
06/05 06:10 11.8 95 10 11.1 4 4 1018 0.4 22.7 29.1 47.0 123.5 120.9 417.0
06/05 06:00 11.9 96 10.17 11.3 2 2 1018 0.4 23.1 29.3 47.7 125.4 123.2 425.0
06/05 05:50 11.8 95 10 11.1 2 2 1017.8 0.4 22.7 29.1 47.0 123.5 120.9 416.9
06/05 05:40 11.8 95 10 11.1 4 4 1017.8 0.4 22.7 29.1 47.0 123.5 120.9 416.9
06/05 05:30 11.7 96 10.04 11.1 7 7 1017.6 0.4 22.8 29.1 47.2 124.1 121.6 419.4
06/05 05:20 12.1 95 10.19 11.4 6 6 1017.6 0.4 23.1 29.3 47.6 125.2 123.2 424.8
06/05 05:10 12.5 97 10.67 12 4 4 1017.5 0.4 24.1 30.0 49.5 130.2 129.4 446.7
06/05 05:00 12.2 96 10.36 11.6 2 4 1017.5 0.4 23.4 29.5 48.3 127.0 125.4 432.7
06/05 04:50 12.2 95 10.25 11.5 2 2 1017.5 0.4 23.2 29.3 47.8 125.7 123.8 427.2
06/05 04:40 12.2 95 10.25 11.5 4 4 1017.5 0.4 23.2 29.3 47.8 125.7 123.8 427.2
06/05 04:30 12 95 10.13 11.2 6 6 1017.6 0.4 23.0 29.2 47.4 124.7 122.5 422.3
06/05 04:20 12.4 95 10.38 11.6 6 6 1017.6 0.4 23.5 29.5 48.3 126.9 125.4 432.6
06/05 04:10 12.7 95 10.58 12 6 6 1017.5 0.4 23.9 29.8 48.9 128.8 127.8 441.0
06/05 04:00 12.9 96 10.82 12.3 6 6 1017.5 0.4 24.4 30.1 49.9 131.3 130.9 451.9
06/05 03:50 13.1 95 10.84 12.4 4 4 1017.6 0.4 24.4 30.1 49.8 131.2 130.9 451.8
06/05 03:40 12.9 95 10.71 12.1 4 4 1017.7 0.4 24.2 29.9 49.4 130.0 129.3 446.4
06/05 03:30 12.9 95 10.71 12.1 4 4 1017.8 0.4 24.2 29.9 49.4 130.0 129.3 446.5
06/05 03:20 13.1 95 10.84 12.3 4 4 1017.8 0.4 24.4 30.1 49.9 131.2 130.9 451.9
06/05 03:10 13.4 95 11.04 12.6 2 4 1017.7 0.4 24.8 30.3 50.5 133.0 133.2 460.2
06/05 03:00 13.4 94 10.93 12.5 7 9 1017.8 0.4 24.6 30.1 50.1 131.7 131.7 454.6
06/05 02:50 13.7 94 11.13 12.7 9 9 1017.8 0.4 25.0 30.4 50.7 133.6 134.0 463.0
06/05 02:40 14 95 11.46 13.2 2 2 1017.7 0.4 25.7 30.9 52.0 136.9 138.3 477.8
06/05 02:30 14.1 95 11.53 13.3 7 9 1017.9 0.4 25.9 31.0 52.3 137.6 139.1 480.9
06/05 02:20 14.1 96 11.65 13.4 6 6 1018 0.4 26.1 31.2 52.8 139.1 140.9 487.0
06/05 02:10 13.9 95 11.39 13.1 6 6 1018.1 0.4 25.6 30.8 51.8 136.3 137.5 475.1
06/05 02:00 13.8 94 11.2 12.9 0 0 1018.2 0.4 25.2 30.5 51.0 134.3 134.9 466.0
06/05 01:50 14.3 94 11.55 13.3 0 0 1018.2 0.4 25.9 30.9 52.2 137.5 139.1 480.7
06/05 01:40 14.4 94 11.62 13.4 0 0 1018.2 0.4 26.0 31.0 52.5 138.2 139.9 483.7
06/05 01:30 14.6 94 11.76 13.6 0 0 1018.2 0.4 26.3 31.2 53.0 139.5 141.6 489.5
06/05 01:20 14.9 92 11.73 13.7 0 0 1018.4 0.4 26.2 31.1 52.6 138.6 140.6 486.2
06/05 01:10 15 92 11.8 13.7 0 0 1018.6 0.4 26.4 31.2 52.9 139.3 141.5 489.2
06/05 01:00 15.1 91 11.74 13.6 0 0 1018.6 0.4 26.2 31.0 52.5 138.4 140.4 485.5
06/05 00:50 15.3 92 12.01 14 0 0 1018.7 0.4 26.8 31.4 53.6 141.2 144.0 498.0
06/05 00:40 15.4 90 11.82 13.7 0 0 1018.6 0.4 26.4 31.0 52.7 138.8 141.0 487.6
06/05 00:30 15.5 90 11.9 13.9 2 4 1018.7 0.4 26.6 31.2 53.0 139.6 142.0 491.1
06/05 00:20 15.6 90 11.97 13.9 4 4 1018.9 0.4 26.7 31.3 53.2 140.2 142.9 494.1
06/05 00:10 15.7 89 11.91 13.9 4 6 1018.9 0.4 26.6 31.1 52.9 139.3 141.8 490.4
06/05 00:00 15.8 87 11.71 13.6 0 2 1019 0.4 26.1 30.7 52.0 136.8 138.7 479.7
05/05 23:50 15.8 86 11.58 13.4 0 0 1018.9 0.4 25.8 30.5 51.4 135.3 136.9 473.2
05/05 23:40 15.8 87 11.71 13.6 4 6 1019.2 0.2 26.1 30.7 52.0 136.9 138.8 479.8
05/05 23:30 15.8 87 11.71 13.6 2 4 1019 0.2 26.1 30.7 52.0 136.8 138.7 479.7
05/05 23:20 15.9 83 11.24 13 4 4 1019 0.2 25.1 29.9 49.9 131.2 131.9 455.8
05/05 23:10 16.1 82 11.24 13 6 7 1019 0 25.1 29.8 49.7 130.9 131.5 454.6
05/05 23:00 16.2 80 11.03 12.7 9 11 1019 0 24.6 29.4 48.8 128.3 128.4 443.7
05/05 22:50 16.2 81 11.17 12.9 9 11 1019.3 0 24.9 29.7 49.4 130.0 130.4 450.7
05/05 22:40 16.3 81 11.24 13 7 7 1019.4 0 25.1 29.8 49.6 130.6 131.2 453.6
05/05 22:30 16.2 83 11.45 13.3 7 13 1019.5 0 25.5 30.2 50.6 133.2 134.4 464.5
05/05 22:20 16.3 84 11.65 13.6 9 11 1019.5 0 26.0 30.5 51.4 135.3 137.0 473.8
05/05 22:10 16.5 78 10.95 12.6 11 13 1019.4 0 24.5 29.2 48.3 127.0 126.8 438.3
05/05 22:00 16.4 79 11.03 12.8 7 11 1018.7 0 24.6 29.3 48.6 128.0 128.1 442.5
05/05 21:50 16.4 80 11.17 12.9 9 11 1019.1 0 24.9 29.6 49.2 129.6 130.0 449.4
05/05 21:40 16.4 83 11.58 13.5 15 19 1019.3 0 25.8 30.3 51.0 134.3 135.8 469.7
05/05 21:30 16.4 84 11.72 13.7 2 6 1018.9 0 26.1 30.5 51.6 135.9 137.8 476.5
05/05 21:20 16.4 84 11.72 13.7 7 7 1019.3 0 26.1 30.5 51.6 135.9 137.8 476.6
05/05 21:10 16.5 84 11.79 13.9 7 7 1019.6 0 26.3 30.6 51.9 136.6 138.7 479.6
05/05 21:00 16.5 85 11.93 14 7 17 1019.4 0 26.6 30.9 52.5 138.2 140.7 486.5
05/05 20:50 16.5 83 11.65 13.7 7 9 1019.4 0 26.0 30.4 51.3 135.0 136.7 472.6
05/05 20:40 16.4 84 11.72 13.7 4 4 1019.1 0 26.1 30.5 51.6 135.9 137.8 476.5
05/05 20:30 16.4 86 12 14.1 9 11 1019.2 0 26.7 31.0 52.8 139.2 141.8 490.6
05/05 20:20 16.4 86 12 14 9 9 1019 0 26.7 31.0 52.8 139.2 141.8 490.5
05/05 20:10 16.4 86 12 14 9 11 1019.1 0 26.7 31.0 52.8 139.2 141.8 490.5
05/05 20:00 16.5 86 12.08 14.2 7 9 1018.9 0 26.9 31.1 53.1 139.9 142.8 493.8
05/05 19:50 16.6 83 11.72 13.8 9 9 1019 0 26.1 30.5 51.5 135.5 137.4 475.3
05/05 19:40 16.6 83 11.72 13.8 9 11 1019.3 0 26.1 30.5 51.5 135.6 137.5 475.4
05/05 19:30 16.6 84 11.87 13.9 13 19 1019.3 0 26.4 30.7 52.1 137.3 139.6 482.8
05/05 19:20 16.6 83 11.72 13.8 11 13 1018.9 0 26.1 30.5 51.5 135.5 137.4 475.2
05/05 19:10 16.7 83 11.79 13.9 9 11 1018.8 0 26.2 30.5 51.7 136.2 138.2 478.1
05/05 19:00 16.8 83 11.87 13.9 11 15 1018.6 0 26.4 30.6 52.0 136.9 139.2 481.3
05/05 18:50 16.7 83 11.79 13.9 7 7 1018.6 0 26.2 30.5 51.7 136.1 138.2 478.0
05/05 18:40 16.7 83 11.79 13.9 15 19 1018.4 0 26.2 30.5 51.7 136.1 138.2 477.9
05/05 18:30 16.7 85 12.08 14.2 9 15 1018.5 0 26.9 31.0 52.9 139.5 142.3 492.4
05/05 18:20 16.7 86 12.22 14.3 9 11 1018.5 0 27.2 31.3 53.6 141.1 144.3 499.4
05/05 18:10 16.8 87 12.44 14.6 13 17 1018.5 0 27.6 31.6 54.5 143.5 147.3 509.8
05/05 18:00 16.8 87 12.44 14.6 13 17 1018.3 0 27.6 31.6 54.4 143.5 147.3 509.8
05/05 17:50 16.8 87 12.44 14.6 13 15 1017.9 0 27.6 31.6 54.4 143.4 147.3 509.6
05/05 17:40 16.8 85 12.15 14.2 20 24 1018.2 0 27.0 31.1 53.2 140.1 143.1 495.1
05/05 17:30 17.2 84 12.3 14.5 24 33 1018.4 0 27.3 31.2 53.6 141.1 144.5 500.1
05/05 17:20 17.5 85 12.67 14.9 22 24 1018.3 0 28.1 31.8 55.0 144.9 149.3 516.7
05/05 17:10 17.8 84 12.75 15 19 22 1017.7 0 28.2 31.8 55.1 145.2 149.8 518.5
05/05 17:00 17.9 83 12.67 15 15 20 1017.5 0 28.0 31.6 54.6 144.0 148.4 513.7
05/05 16:50 18.1 82 12.67 15.1 15 17 1017.4 0 28.0 31.5 54.5 143.6 148.0 512.3

Last Refresh: 06-May-2026 09:01:39

Bureau of Meteorology